createdAt,value
2023-04-13T00:00:42.005Z,41.92
2023-04-13T00:03:12.200Z,42.43
2023-04-13T00:05:39.493Z,41.77
2023-04-13T00:08:07.031Z,41.73
2023-04-13T00:10:36.295Z,41.66
2023-04-13T00:13:05.469Z,41.73
2023-04-13T00:15:34.669Z,41.92
2023-04-13T00:18:01.845Z,41.97
2023-04-13T00:20:28.761Z,42.08
2023-04-13T00:22:55.407Z,42.17
2023-04-13T00:25:22.301Z,42.36
2023-04-13T00:27:53.129Z,42.16
2023-04-13T00:30:21.213Z,41.56
2023-04-13T00:32:48.767Z,41.82
2023-04-13T00:35:24.785Z,42.59
2023-04-13T00:37:52.784Z,41.93
2023-04-13T00:40:19.329Z,42.11
2023-04-13T00:42:47.451Z,42.22
2023-04-13T00:45:14.521Z,41.85
2023-04-13T00:47:43.505Z,42.56
2023-04-13T00:50:10.428Z,41.45
2023-04-13T00:52:40.421Z,41.75
2023-04-13T00:55:07.700Z,42.03
2023-04-13T00:57:35.250Z,41.79
2023-04-13T01:00:06.769Z,41.76
2023-04-13T01:02:34.245Z,41.41
2023-04-13T01:05:02.327Z,42.12
2023-04-13T01:07:44.709Z,41.76
2023-04-13T01:10:44.937Z,41.70
2023-04-13T01:13:20.680Z,42.23
2023-04-13T01:16:01.529Z,42.38
2023-04-13T01:18:30.424Z,42.25
2023-04-13T01:20:56.870Z,42.42
2023-04-13T01:23:32.159Z,42.75
2023-04-13T01:26:04.096Z,42.50
2023-04-13T01:28:31.002Z,42.56
2023-04-13T01:30:57.713Z,43.00
2023-04-13T01:33:25.401Z,42.49
2023-04-13T01:35:52.180Z,43.06
2023-04-13T01:38:24.530Z,43.68
2023-04-13T01:40:51.775Z,42.57
2023-04-13T01:43:20.596Z,43.29
2023-04-13T01:45:53.513Z,42.93
2023-04-13T01:48:28.127Z,42.73
2023-04-13T01:51:00.671Z,43.15
2023-04-13T01:53:46.455Z,43.64
2023-04-13T01:56:15.683Z,43.50
2023-04-13T01:58:43.004Z,43.10
2023-04-13T02:01:09.624Z,43.67
2023-04-13T02:03:36.350Z,42.67
2023-04-13T02:06:02.932Z,43.00
2023-04-13T02:08:32.515Z,43.58
2023-04-13T02:11:00.941Z,43.54
2023-04-13T02:13:27.391Z,43.43
2023-04-13T02:15:53.947Z,42.89
2023-04-13T02:18:20.577Z,43.01
2023-04-13T02:20:47.225Z,43.67
2023-04-13T02:23:15.005Z,43.09
2023-04-13T02:25:44.756Z,42.99
2023-04-13T02:28:12.424Z,43.48
2023-04-13T02:30:39.067Z,42.87
2023-04-13T02:33:07.048Z,43.02
2023-04-13T02:35:35.505Z,43.22
2023-04-13T02:38:01.895Z,42.71
2023-04-13T02:40:28.698Z,43.25
2023-04-13T02:42:57.417Z,43.44
2023-04-13T02:45:23.886Z,42.97
2023-04-13T02:47:50.575Z,43.58
2023-04-13T02:50:18.586Z,43.50
2023-04-13T02:52:45.091Z,43.20
2023-04-13T02:55:11.674Z,43.80
2023-04-13T02:57:38.318Z,43.50
2023-04-13T03:00:12.293Z,43.94
2023-04-13T03:02:42.315Z,43.11
2023-04-13T03:05:09.431Z,43.80
2023-04-13T03:07:36.385Z,43.48
2023-04-13T03:10:05.714Z,43.41
2023-04-13T03:12:32.709Z,43.20
2023-04-13T03:15:10.935Z,42.84
2023-04-13T03:17:41.266Z,43.26
2023-04-13T03:20:16.706Z,43.15
2023-04-13T03:22:44.966Z,43.52
2023-04-13T03:25:11.600Z,43.21
2023-04-13T03:27:37.989Z,43.21
2023-04-13T03:30:04.748Z,43.35
2023-04-13T03:32:32.023Z,42.86
2023-04-13T03:34:58.899Z,42.83
2023-04-13T03:37:30.020Z,42.80
2023-04-13T03:39:56.660Z,43.56
2023-04-13T03:42:23.443Z,43.17
2023-04-13T03:44:49.844Z,42.94
2023-04-13T03:47:16.806Z,42.77
2023-04-13T03:49:43.156Z,42.95
2023-04-13T03:52:09.622Z,43.37
2023-04-13T03:54:36.088Z,43.07
2023-04-13T03:57:04.471Z,42.80
2023-04-13T03:59:30.994Z,43.03
2023-04-13T04:01:57.840Z,42.75
2023-04-13T04:04:24.516Z,43.68
2023-04-13T04:06:51.346Z,43.52
2023-04-13T04:09:18.478Z,43.34
2023-04-13T04:11:45.134Z,43.61
2023-04-13T04:14:11.799Z,43.88
2023-04-13T04:16:38.246Z,43.63
2023-04-13T04:19:04.612Z,43.40
2023-04-13T04:21:34.439Z,43.09
2023-04-13T04:24:06.413Z,43.81
2023-04-13T04:26:32.915Z,43.38
2023-04-13T04:29:02.938Z,43.72
2023-04-13T04:31:36.870Z,43.56
2023-04-13T04:34:03.882Z,43.68
2023-04-13T04:36:30.476Z,43.13
2023-04-13T04:39:02.572Z,43.60
2023-04-13T04:41:30.912Z,43.56
2023-04-13T04:43:57.812Z,43.32
2023-04-13T04:46:29.544Z,44.00
2023-04-13T04:49:00.453Z,44.09
2023-04-13T04:51:27.595Z,44.10
2023-04-13T04:53:54.186Z,43.56
2023-04-13T04:56:21.779Z,44.13
2023-04-13T04:58:48.273Z,43.91
2023-04-13T05:01:14.867Z,43.50
2023-04-13T05:03:41.390Z,44.31
2023-04-13T05:06:08.575Z,44.27
2023-04-13T05:08:35.157Z,44.66
2023-04-13T05:11:01.587Z,44.43
2023-04-13T05:13:28.069Z,44.71
2023-04-13T05:15:54.410Z,44.41
2023-04-13T05:18:20.813Z,44.30
2023-04-13T05:20:47.255Z,44.27
2023-04-13T05:23:13.903Z,44.67
2023-04-13T05:25:40.671Z,44.91
2023-04-13T05:28:07.220Z,45.04
2023-04-13T05:30:34.086Z,44.74
2023-04-13T05:33:05.558Z,44.59
2023-04-13T05:35:32.115Z,44.55
2023-04-13T05:38:00.717Z,44.59
2023-04-13T05:40:27.823Z,45.29
2023-04-13T05:42:54.182Z,44.92
2023-04-13T05:45:21.498Z,44.39
2023-04-13T05:47:48.090Z,44.83
2023-04-13T05:50:14.549Z,44.95
2023-04-13T05:52:40.854Z,45.04
2023-04-13T05:55:07.544Z,45.06
2023-04-13T05:57:34.253Z,45.42
2023-04-13T06:00:00.723Z,45.15
2023-04-13T06:02:27.352Z,45.82
2023-04-13T06:04:55.177Z,45.23
2023-04-13T06:07:22.618Z,45.95
2023-04-13T06:09:49.752Z,45.80
2023-04-13T06:12:18.153Z,45.25
2023-04-13T06:14:44.911Z,45.12
2023-04-13T06:17:11.352Z,45.31
2023-04-13T06:19:38.004Z,45.41
2023-04-13T06:22:04.413Z,45.28
2023-04-13T06:24:33.718Z,45.31
2023-04-13T06:27:00.112Z,45.69
2023-04-13T06:29:26.567Z,45.39
2023-04-13T06:31:52.906Z,45.29
2023-04-13T06:34:19.333Z,45.44
2023-04-13T06:36:45.682Z,45.60
2023-04-13T06:39:12.032Z,45.72
2023-04-13T06:41:38.342Z,45.34
2023-04-13T06:44:04.897Z,45.53
2023-04-13T06:46:31.337Z,45.40
2023-04-13T06:48:58.105Z,45.71
2023-04-13T06:51:24.569Z,45.34
2023-04-13T06:53:52.448Z,45.37
2023-04-13T06:56:18.829Z,45.24
2023-04-13T06:58:45.471Z,45.31
2023-04-13T07:01:12.302Z,44.98
2023-04-13T07:03:38.974Z,45.26
2023-04-13T07:06:06.541Z,44.90
2023-04-13T07:08:34.275Z,44.47
2023-04-13T07:11:02.280Z,44.45
2023-04-13T07:13:28.980Z,44.15
2023-04-13T07:15:55.627Z,44.09
2023-04-13T07:18:22.012Z,44.00
2023-04-13T07:20:48.375Z,43.97
2023-04-13T07:23:15.021Z,44.27
2023-04-13T07:25:41.644Z,43.62
2023-04-13T07:28:08.149Z,43.81
2023-04-13T07:30:34.799Z,43.72
2023-04-13T07:33:01.709Z,43.47
2023-04-13T07:35:28.293Z,43.41
2023-04-13T07:37:55.305Z,43.22
2023-04-13T07:40:21.646Z,43.24
2023-04-13T07:42:51.409Z,42.99
2023-04-13T07:45:19.918Z,42.89
2023-04-13T07:47:46.684Z,42.96
2023-04-13T07:50:13.380Z,42.93
2023-04-13T07:52:39.751Z,42.85
2023-04-13T07:55:07.508Z,42.50
2023-04-13T07:57:33.854Z,42.92
2023-04-13T08:00:00.286Z,42.84
2023-04-13T08:02:26.721Z,42.82
2023-04-13T08:04:53.377Z,42.78
2023-04-13T08:07:20.948Z,42.75
2023-04-13T08:09:49.526Z,42.73
2023-04-13T08:12:17.914Z,42.80
2023-04-13T08:14:44.221Z,42.72
2023-04-13T08:17:11.352Z,42.35
2023-04-13T08:19:37.942Z,41.94
2023-04-13T08:22:05.236Z,41.28
2023-04-13T08:24:32.186Z,41.61
2023-04-13T08:26:58.955Z,41.18
2023-04-13T08:29:26.302Z,40.71
2023-04-13T08:31:53.083Z,40.37
2023-04-13T08:34:19.704Z,40.79
2023-04-13T08:36:46.185Z,40.82
2023-04-13T08:39:13.275Z,40.65
2023-04-13T08:41:43.963Z,40.48
2023-04-13T08:44:12.389Z,40.49
2023-04-13T08:46:45.120Z,39.92
2023-04-13T08:49:12.681Z,39.87
2023-04-13T08:51:42.169Z,39.83
2023-04-13T08:54:08.948Z,39.78
2023-04-13T08:56:45.323Z,39.96
2023-04-13T08:59:15.297Z,39.84
2023-04-13T09:01:44.340Z,39.99
2023-04-13T09:04:13.741Z,40.28
2023-04-13T09:06:44.884Z,40.17
2023-04-13T09:09:15.809Z,39.98
2023-04-13T09:11:43.482Z,40.35
2023-04-13T09:14:10.194Z,40.26
2023-04-13T09:16:43.618Z,40.03
2023-04-13T09:19:11.157Z,40.53
2023-04-13T09:21:43.105Z,40.11
2023-04-13T09:24:10.822Z,40.07
2023-04-13T09:26:41.810Z,40.03
2023-04-13T09:29:11.651Z,40.11
2023-04-13T09:31:39.819Z,40.41
2023-04-13T09:34:08.179Z,40.39
2023-04-13T09:36:39.444Z,41.05
2023-04-13T09:39:13.661Z,41.67
2023-04-13T09:41:40.829Z,41.44
2023-04-13T09:44:20.769Z,42.38
2023-04-13T09:47:03.954Z,42.38
2023-04-13T09:49:40.822Z,42.15
2023-04-13T09:52:18.062Z,41.73
2023-04-13T09:54:49.650Z,41.67
2023-04-13T09:57:27.138Z,41.55
2023-04-13T09:59:54.882Z,41.90
2023-04-13T10:02:21.898Z,42.08
2023-04-13T10:04:48.402Z,41.46
2023-04-13T10:07:14.798Z,41.54
2023-04-13T10:09:44.608Z,41.64
2023-04-13T10:12:12.289Z,41.62
2023-04-13T10:14:41.040Z,41.42
2023-04-13T10:17:44.370Z,41.57
2023-04-13T10:20:13.610Z,41.94
2023-04-13T10:22:44.032Z,42.30
2023-04-13T10:25:31.527Z,42.62
2023-04-13T10:28:00.806Z,42.36
2023-04-13T10:30:28.092Z,42.41
2023-04-13T10:33:09.589Z,41.86
2023-04-13T10:35:42.914Z,42.17
2023-04-13T10:38:10.714Z,41.99
2023-04-13T10:40:47.640Z,41.72
2023-04-13T10:43:30.975Z,41.08
2023-04-13T10:46:13.414Z,40.99
2023-04-13T10:48:43.158Z,40.87
2023-04-13T10:51:09.626Z,40.83
2023-04-13T10:53:37.003Z,40.30
2023-04-13T10:56:05.385Z,40.20
2023-04-13T10:58:33.126Z,40.08
2023-04-13T11:01:00.075Z,40.12
2023-04-13T11:03:28.423Z,39.88
2023-04-13T11:05:59.665Z,39.36
2023-04-13T11:08:27.801Z,39.92
2023-04-13T11:10:55.563Z,39.54
2023-04-13T11:13:25.165Z,39.98
2023-04-13T11:15:51.953Z,39.45
2023-04-13T11:18:28.319Z,39.15
2023-04-13T11:20:55.382Z,39.77
2023-04-13T11:23:24.123Z,39.42
2023-04-13T11:25:56.106Z,39.74
2023-04-13T11:28:23.579Z,39.88
2023-04-13T11:30:57.012Z,39.23
2023-04-13T11:33:27.668Z,39.79
2023-04-13T11:35:58.912Z,39.51
2023-04-13T11:38:25.768Z,39.60
2023-04-13T11:40:58.887Z,39.30
2023-04-13T11:43:34.548Z,39.75
2023-04-13T11:46:01.178Z,39.72
2023-04-13T11:48:27.705Z,39.70
2023-04-13T11:50:54.975Z,39.58
2023-04-13T11:53:21.960Z,39.58
2023-04-13T11:55:53.406Z,39.85
2023-04-13T11:58:21.281Z,40.06
2023-04-13T12:00:49.270Z,40.16
2023-04-13T12:03:34.509Z,39.50
2023-04-13T12:06:05.866Z,39.40
2023-04-13T12:08:33.890Z,39.30
2023-04-13T12:13:48.453Z,38.26
2023-04-13T12:19:06.975Z,37.91
2023-04-13T12:21:35.200Z,38.28
2023-04-13T12:24:05.459Z,38.76
2023-04-13T12:29:05.250Z,38.71
2023-04-13T12:31:39.279Z,38.27
2023-04-13T12:34:07.898Z,38.18
2023-04-13T12:36:36.701Z,38.17
2023-04-13T12:39:04.757Z,38.00
2023-04-13T12:41:32.360Z,37.95
2023-04-13T12:43:59.252Z,38.18
2023-04-13T12:46:26.592Z,38.34
2023-04-13T12:48:53.383Z,38.20
2023-04-13T12:51:19.989Z,37.85
2023-04-13T12:53:46.420Z,37.80
2023-04-13T12:56:12.804Z,37.32
2023-04-13T12:58:39.239Z,37.65
2023-04-13T13:01:05.730Z,37.22
2023-04-13T13:03:32.255Z,37.21
2023-04-13T13:05:58.671Z,36.28
2023-04-13T13:08:26.166Z,36.01
2023-04-13T13:10:53.225Z,36.05
2023-04-13T13:13:19.668Z,36.66
2023-04-13T13:15:46.440Z,36.11
2023-04-13T13:18:13.767Z,36.03
2023-04-13T13:20:41.616Z,35.84
2023-04-13T13:23:12.424Z,35.15
2023-04-13T13:25:52.438Z,35.69
2023-04-13T13:28:29.747Z,35.78
2023-04-13T13:30:56.130Z,35.20
2023-04-13T13:33:23.391Z,35.37
2023-04-13T13:35:50.000Z,35.07
2023-04-13T13:38:16.619Z,35.23
2023-04-13T13:40:43.161Z,35.05
2023-04-13T13:43:13.019Z,35.12
2023-04-13T13:45:39.709Z,35.40
2023-04-13T13:48:06.689Z,35.44
2023-04-13T13:50:33.063Z,35.14
2023-04-13T13:53:04.342Z,34.95
2023-04-13T13:55:31.906Z,34.92
2023-04-13T13:57:58.629Z,34.97
2023-04-13T14:00:25.647Z,34.92
2023-04-13T14:02:53.220Z,35.55
2023-04-13T14:05:22.021Z,35.41
2023-04-13T14:07:48.788Z,35.15
2023-04-13T14:10:15.513Z,35.04
2023-04-13T14:12:44.474Z,35.02
2023-04-13T14:15:12.322Z,34.74
2023-04-13T14:17:39.770Z,35.00
2023-04-13T14:20:12.744Z,34.83
2023-04-13T14:22:40.648Z,35.32
2023-04-13T14:25:09.225Z,35.18
2023-04-13T14:27:36.179Z,35.25
2023-04-13T14:30:03.056Z,34.85
2023-04-13T14:32:29.554Z,34.78
2023-04-13T14:35:00.286Z,34.81
2023-04-13T14:37:27.787Z,34.86
2023-04-13T14:39:55.289Z,34.77
2023-04-13T14:42:24.372Z,33.81
2023-04-13T14:44:54.242Z,33.71
2023-04-13T14:47:20.894Z,33.51
2023-04-13T14:49:47.825Z,33.52
2023-04-13T14:52:15.174Z,33.47
2023-04-13T14:54:41.810Z,33.78
2023-04-13T14:57:09.674Z,33.19
2023-04-13T14:59:36.010Z,33.01
2023-04-13T15:02:03.902Z,32.95
2023-04-13T15:04:31.378Z,32.80
2023-04-13T15:06:58.819Z,33.22
2023-04-13T15:09:25.711Z,33.22
2023-04-13T15:11:55.999Z,33.20
2023-04-13T15:14:22.701Z,33.24
2023-04-13T15:16:49.245Z,33.05
2023-04-13T15:19:15.662Z,32.96
2023-04-13T15:21:42.259Z,32.63
2023-04-13T15:24:11.373Z,32.41
2023-04-13T15:26:42.981Z,32.16
2023-04-13T15:29:09.583Z,32.51
2023-04-13T15:31:37.482Z,32.00
2023-04-13T15:34:09.067Z,31.95
2023-04-13T15:36:36.385Z,32.42
2023-04-13T15:39:04.381Z,32.10
2023-04-13T15:41:31.516Z,32.00
2023-04-13T15:44:01.412Z,31.83
2023-04-13T15:46:27.972Z,31.51
2023-04-13T15:48:56.130Z,31.41
2023-04-13T15:51:23.315Z,31.23
2023-04-13T15:53:49.768Z,31.24
2023-04-13T15:56:16.682Z,31.15
2023-04-13T15:58:43.163Z,31.17
2023-04-13T16:01:11.263Z,31.24
2023-04-13T16:03:38.323Z,31.16
2023-04-13T16:06:05.095Z,31.39
2023-04-13T16:08:31.712Z,31.17
2023-04-13T16:10:58.303Z,31.16
2023-04-13T16:13:34.660Z,31.12
2023-04-13T16:16:08.011Z,30.96
2023-04-13T16:18:36.754Z,31.14
2023-04-13T16:21:03.973Z,31.07
2023-04-13T16:23:37.319Z,30.91
2023-04-13T16:26:04.021Z,30.83
2023-04-13T16:28:32.394Z,30.50
2023-04-13T16:30:59.283Z,30.61
2023-04-13T16:33:26.203Z,30.26
2023-04-13T16:35:52.641Z,30.26
2023-04-13T16:38:19.045Z,30.16
2023-04-13T16:40:45.848Z,30.25
2023-04-13T16:43:12.651Z,30.13
2023-04-13T16:45:39.039Z,30.27
2023-04-13T16:48:05.940Z,30.14
2023-04-13T16:50:32.771Z,29.71
2023-04-13T16:53:02.276Z,29.48
2023-04-13T16:55:28.786Z,29.89
2023-04-13T16:57:58.031Z,29.65
2023-04-13T17:00:24.797Z,29.96
2023-04-13T17:02:51.427Z,29.54
2023-04-13T17:05:19.537Z,30.27
2023-04-13T17:07:48.017Z,29.95
2023-04-13T17:10:14.606Z,30.32
2023-04-13T17:12:42.977Z,30.08
2023-04-13T17:15:10.043Z,30.11
2023-04-13T17:17:38.177Z,30.20
2023-04-13T17:20:06.720Z,29.93
2023-04-13T17:22:33.604Z,30.57
2023-04-13T17:25:00.902Z,30.56
2023-04-13T17:27:27.581Z,30.10
2023-04-13T17:29:53.983Z,30.10
2023-04-13T17:32:21.835Z,30.20
2023-04-13T17:34:49.386Z,30.28
2023-04-13T17:37:15.957Z,30.65
2023-04-13T17:39:47.281Z,30.45
2023-04-13T17:42:14.685Z,30.69
2023-04-13T17:44:41.720Z,30.80
2023-04-13T17:47:09.215Z,31.10
2023-04-13T17:49:36.854Z,30.96
2023-04-13T17:52:03.906Z,31.44
2023-04-13T17:54:30.332Z,31.52
2023-04-13T17:56:56.774Z,32.19
2023-04-13T17:59:23.377Z,32.08
2023-04-13T18:01:52.172Z,32.20
2023-04-13T18:04:19.071Z,32.11
2023-04-13T18:06:46.048Z,32.19
2023-04-13T18:09:12.737Z,32.53
2023-04-13T18:11:39.139Z,32.44
2023-04-13T18:14:05.879Z,32.39
2023-04-13T18:16:32.567Z,32.63
2023-04-13T18:18:59.051Z,33.08
2023-04-13T18:21:25.935Z,32.29
2023-04-13T18:23:53.997Z,32.42
2023-04-13T18:26:21.907Z,32.46
2023-04-13T18:28:48.421Z,32.35
2023-04-13T18:31:14.859Z,32.47
2023-04-13T18:33:44.574Z,32.55
2023-04-13T18:36:18.742Z,32.77
2023-04-13T18:38:45.943Z,33.24
2023-04-13T18:41:12.992Z,33.02
2023-04-13T18:43:39.631Z,33.30
2023-04-13T18:46:08.839Z,33.50
2023-04-13T18:48:35.975Z,33.61
2023-04-13T18:51:03.385Z,34.02
2023-04-13T18:53:30.523Z,34.08
2023-04-13T18:55:59.118Z,34.30
2023-04-13T18:58:27.342Z,34.15
2023-04-13T19:00:53.937Z,33.78
2023-04-13T19:03:20.620Z,33.79
2023-04-13T19:05:47.691Z,34.26
2023-04-13T19:08:15.266Z,34.08
2023-04-13T19:10:42.238Z,34.47
2023-04-13T19:13:09.042Z,34.29
2023-04-13T19:15:35.863Z,34.26
2023-04-13T19:18:04.001Z,34.16
2023-04-13T19:20:30.433Z,34.77
2023-04-13T19:22:56.842Z,34.35
2023-04-13T19:25:23.440Z,35.17
2023-04-13T19:27:52.847Z,34.78
2023-04-13T19:30:19.786Z,34.88
2023-04-13T19:32:48.314Z,34.71
2023-04-13T19:35:14.871Z,35.38
2023-04-13T19:37:42.027Z,34.88
2023-04-13T19:40:15.417Z,34.94
2023-04-13T19:42:43.379Z,35.39
2023-04-13T19:45:12.058Z,35.52
2023-04-13T19:47:43.023Z,35.31
2023-04-13T19:50:12.517Z,35.74
2023-04-13T19:52:39.882Z,35.65
2023-04-13T19:55:08.429Z,35.63
2023-04-13T19:57:36.576Z,35.90
2023-04-13T20:00:07.206Z,35.71
2023-04-13T20:02:33.667Z,35.67
2023-04-13T20:05:00.412Z,35.88
2023-04-13T20:07:27.036Z,36.26
2023-04-13T20:09:54.448Z,36.38
2023-04-13T20:12:22.051Z,36.40
2023-04-13T20:14:49.376Z,36.55
2023-04-13T20:17:17.077Z,36.44
2023-04-13T20:19:43.683Z,36.62
2023-04-13T20:22:10.404Z,36.53
2023-04-13T20:24:36.756Z,36.82
2023-04-13T20:27:03.189Z,36.73
2023-04-13T20:29:29.835Z,36.97
2023-04-13T20:31:56.263Z,36.90
2023-04-13T20:34:24.399Z,36.72
2023-04-13T20:36:51.060Z,36.80
2023-04-13T20:39:25.204Z,37.09
2023-04-13T20:41:56.063Z,37.06
2023-04-13T20:44:25.805Z,37.54
2023-04-13T20:46:55.479Z,37.08
2023-04-13T20:49:26.833Z,37.34
2023-04-13T20:51:56.870Z,37.34
2023-04-13T20:54:26.574Z,37.77
2023-04-13T20:56:53.184Z,37.36
2023-04-13T20:59:19.588Z,37.19
2023-04-13T21:01:46.351Z,37.55
2023-04-13T21:04:12.825Z,37.59
2023-04-13T21:06:40.901Z,37.82
2023-04-13T21:09:08.553Z,37.52
2023-04-13T21:11:35.365Z,37.57
2023-04-13T21:14:02.563Z,37.81
2023-04-13T21:16:29.319Z,37.75
2023-04-13T21:18:56.094Z,38.05
2023-04-13T21:21:23.815Z,37.85
2023-04-13T21:23:51.227Z,37.67
2023-04-13T21:26:17.699Z,38.02
2023-04-13T21:28:45.454Z,37.96
2023-04-13T21:31:11.988Z,38.46
2023-04-13T21:33:39.458Z,38.31
2023-04-13T21:38:42.823Z,38.00
2023-04-13T21:41:20.345Z,38.92
2023-04-13T21:43:47.381Z,38.35
2023-04-13T21:46:15.347Z,38.80
2023-04-13T21:48:42.376Z,38.12
2023-04-13T21:51:09.602Z,38.36
2023-04-13T21:53:36.985Z,38.31
2023-04-13T21:56:04.820Z,38.54
2023-04-13T21:58:39.629Z,38.87
2023-04-13T22:01:07.237Z,38.84
2023-04-13T22:03:42.142Z,39.20
2023-04-13T22:06:10.582Z,38.55
2023-04-13T22:08:38.463Z,38.61
2023-04-13T22:11:05.324Z,39.22
2023-04-13T22:13:32.124Z,39.17
2023-04-13T22:15:58.676Z,38.80
2023-04-13T22:18:26.937Z,39.48
2023-04-13T22:20:53.513Z,39.07
2023-04-13T22:23:20.116Z,40.02
2023-04-13T22:25:59.409Z,40.12
2023-04-13T22:28:28.866Z,39.05
2023-04-13T22:30:55.549Z,39.82
2023-04-13T22:33:22.208Z,39.81
2023-04-13T22:35:51.903Z,39.56
2023-04-13T22:38:19.146Z,39.74
2023-04-13T22:40:45.731Z,39.21
2023-04-13T22:43:12.113Z,40.11
2023-04-13T22:45:38.616Z,39.73
2023-04-13T22:48:05.592Z,40.03
2023-04-13T22:50:32.295Z,40.09
2023-04-13T22:52:58.679Z,39.63
2023-04-13T22:55:25.178Z,39.62
2023-04-13T22:57:51.501Z,39.64
2023-04-13T23:00:20.589Z,39.95
2023-04-13T23:02:50.249Z,39.97
2023-04-13T23:05:17.467Z,39.59
2023-04-13T23:07:44.112Z,39.62
2023-04-13T23:10:10.749Z,39.90
2023-04-13T23:12:37.407Z,39.83
2023-04-13T23:15:04.421Z,40.27
2023-04-13T23:17:31.072Z,40.11
2023-04-13T23:20:00.268Z,39.79
2023-04-13T23:22:28.196Z,39.96
2023-04-13T23:24:54.512Z,40.01
2023-04-13T23:27:21.163Z,39.72
2023-04-13T23:29:50.439Z,40.32
2023-04-13T23:32:18.127Z,39.74
2023-04-13T23:34:44.500Z,39.86
2023-04-13T23:37:11.508Z,39.74
2023-04-13T23:39:37.990Z,40.24
2023-04-13T23:42:04.729Z,40.43
2023-04-13T23:44:31.282Z,40.19
2023-04-13T23:46:57.849Z,39.62
2023-04-13T23:49:24.268Z,39.78
2023-04-13T23:51:50.814Z,40.34
2023-04-13T23:54:17.222Z,39.89
2023-04-13T23:56:43.877Z,40.11
2023-04-13T23:59:10.638Z,40.31
